sensor_id;sensor_type;location;lat;lon;timestamp;temperature;humidity
37678;DHT22;23517;50.390;8.616;2022-09-09T00:01:30;15.00;74.50
37678;DHT22;23517;50.390;8.616;2022-09-09T00:04:25;15.00;74.40
37678;DHT22;23517;50.390;8.616;2022-09-09T00:10:15;15.00;74.30
37678;DHT22;23517;50.390;8.616;2022-09-09T00:21:38;15.00;74.40
37678;DHT22;23517;50.390;8.616;2022-09-09T00:24:26;15.10;74.80
37678;DHT22;23517;50.390;8.616;2022-09-09T00:27:16;15.00;74.10
37678;DHT22;23517;50.390;8.616;2022-09-09T00:29:56;15.00;74.40
37678;DHT22;23517;50.390;8.616;2022-09-09T00:32:30;15.10;74.70
37678;DHT22;23517;50.390;8.616;2022-09-09T00:35:04;15.10;74.40
37678;DHT22;23517;50.390;8.616;2022-09-09T00:37:44;15.00;74.80
37678;DHT22;23517;50.390;8.616;2022-09-09T00:40:31;15.00;75.10
37678;DHT22;23517;50.390;8.616;2022-09-09T00:43:24;15.00;74.80
37678;DHT22;23517;50.390;8.616;2022-09-09T00:46:19;15.10;74.60
37678;DHT22;23517;50.390;8.616;2022-09-09T00:55:26;14.90;74.60
37678;DHT22;23517;50.390;8.616;2022-09-09T00:58:17;14.90;75.40
37678;DHT22;23517;50.390;8.616;2022-09-09T01:00:49;14.90;75.30
37678;DHT22;23517;50.390;8.616;2022-09-09T01:03:39;14.90;75.20
37678;DHT22;23517;50.390;8.616;2022-09-09T01:06:34;15.00;74.40
37678;DHT22;23517;50.390;8.616;2022-09-09T01:12:23;15.00;73.80
37678;DHT22;23517;50.390;8.616;2022-09-09T01:14:55;15.00;74.30
37678;DHT22;23517;50.390;8.616;2022-09-09T01:17:30;14.90;74.20
37678;DHT22;23517;50.390;8.616;2022-09-09T01:23:04;14.90;74.60
37678;DHT22;23517;50.390;8.616;2022-09-09T01:26:17;14.80;75.20
37678;DHT22;23517;50.390;8.616;2022-09-09T01:28:48;14.80;74.60
37678;DHT22;23517;50.390;8.616;2022-09-09T01:31:38;14.80;74.60
37678;DHT22;23517;50.390;8.616;2022-09-09T01:34:21;14.80;74.00
37678;DHT22;23517;50.390;8.616;2022-09-09T01:36:58;14.80;74.40
37678;DHT22;23517;50.390;8.616;2022-09-09T01:39:26;14.80;73.90
37678;DHT22;23517;50.390;8.616;2022-09-09T01:41:55;14.80;73.30
37678;DHT22;23517;50.390;8.616;2022-09-09T01:44:22;14.70;73.70
37678;DHT22;23517;50.390;8.616;2022-09-09T01:46:50;14.70;73.80
37678;DHT22;23517;50.390;8.616;2022-09-09T01:49:18;14.60;73.50
37678;DHT22;23517;50.390;8.616;2022-09-09T01:51:48;14.60;74.00
37678;DHT22;23517;50.390;8.616;2022-09-09T01:54:19;14.60;74.10
37678;DHT22;23517;50.390;8.616;2022-09-09T01:57:15;14.60;74.10
37678;DHT22;23517;50.390;8.616;2022-09-09T02:00:05;14.60;74.30
37678;DHT22;23517;50.390;8.616;2022-09-09T02:03:00;14.50;74.90
37678;DHT22;23517;50.390;8.616;2022-09-09T02:05:40;14.50;75.20
37678;DHT22;23517;50.390;8.616;2022-09-09T02:08:11;14.50;75.50
37678;DHT22;23517;50.390;8.616;2022-09-09T02:10:58;14.50;75.10
37678;DHT22;23517;50.390;8.616;2022-09-09T02:13:29;14.40;75.30
37678;DHT22;23517;50.390;8.616;2022-09-09T02:16:08;14.40;75.10
37678;DHT22;23517;50.390;8.616;2022-09-09T02:18:41;14.40;74.90
37678;DHT22;23517;50.390;8.616;2022-09-09T02:21:16;14.40;74.50
37678;DHT22;23517;50.390;8.616;2022-09-09T02:23:45;14.40;74.70
37678;DHT22;23517;50.390;8.616;2022-09-09T02:26:14;14.30;74.80
37678;DHT22;23517;50.390;8.616;2022-09-09T02:28:51;14.30;75.10
37678;DHT22;23517;50.390;8.616;2022-09-09T02:31:22;14.40;75.40
37678;DHT22;23517;50.390;8.616;2022-09-09T02:33:59;14.40;75.10
37678;DHT22;23517;50.390;8.616;2022-09-09T02:36:31;14.40;74.90
37678;DHT22;23517;50.390;8.616;2022-09-09T02:38:59;14.40;74.90
37678;DHT22;23517;50.390;8.616;2022-09-09T02:41:31;14.40;74.70
37678;DHT22;23517;50.390;8.616;2022-09-09T02:44:05;14.40;74.90
37678;DHT22;23517;50.390;8.616;2022-09-09T02:47:24;14.40;75.10
37678;DHT22;23517;50.390;8.616;2022-09-09T02:52:51;14.40;75.70
37678;DHT22;23517;50.390;8.616;2022-09-09T02:55:48;14.50;76.10
37678;DHT22;23517;50.390;8.616;2022-09-09T02:58:18;14.50;75.90
37678;DHT22;23517;50.390;8.616;2022-09-09T03:00:49;14.50;76.00
37678;DHT22;23517;50.390;8.616;2022-09-09T03:03:17;14.60;76.00
37678;DHT22;23517;50.390;8.616;2022-09-09T03:05:45;14.60;75.50
37678;DHT22;23517;50.390;8.616;2022-09-09T03:08:13;14.50;75.40
37678;DHT22;23517;50.390;8.616;2022-09-09T03:10:40;14.60;75.50
37678;DHT22;23517;50.390;8.616;2022-09-09T03:13:07;14.40;75.30
37678;DHT22;23517;50.390;8.616;2022-09-09T03:15:34;14.60;75.00
37678;DHT22;23517;50.390;8.616;2022-09-09T03:18:01;14.60;74.50
37678;DHT22;23517;50.390;8.616;2022-09-09T03:20:30;14.50;75.50
37678;DHT22;23517;50.390;8.616;2022-09-09T03:22:59;14.50;75.20
37678;DHT22;23517;50.390;8.616;2022-09-09T03:25:26;14.60;74.90
37678;DHT22;23517;50.390;8.616;2022-09-09T03:27:54;14.50;74.80
37678;DHT22;23517;50.390;8.616;2022-09-09T03:30:22;14.50;74.80
37678;DHT22;23517;50.390;8.616;2022-09-09T03:32:50;14.40;75.10
37678;DHT22;23517;50.390;8.616;2022-09-09T03:35:17;14.30;75.80
37678;DHT22;23517;50.390;8.616;2022-09-09T03:37:44;14.30;76.60
37678;DHT22;23517;50.390;8.616;2022-09-09T03:40:12;14.30;76.50
37678;DHT22;23517;50.390;8.616;2022-09-09T03:42:39;14.30;77.00
37678;DHT22;23517;50.390;8.616;2022-09-09T03:45:09;14.30;77.20
37678;DHT22;23517;50.390;8.616;2022-09-09T03:47:36;14.30;76.70
37678;DHT22;23517;50.390;8.616;2022-09-09T03:50:05;14.30;76.40
37678;DHT22;23517;50.390;8.616;2022-09-09T03:52:38;14.30;76.30
37678;DHT22;23517;50.390;8.616;2022-09-09T03:55:07;14.30;76.40
37678;DHT22;23517;50.390;8.616;2022-09-09T03:57:34;14.30;76.80
37678;DHT22;23517;50.390;8.616;2022-09-09T04:00:04;14.40;76.70
37678;DHT22;23517;50.390;8.616;2022-09-09T04:02:32;14.50;76.50
37678;DHT22;23517;50.390;8.616;2022-09-09T04:04:58;14.50;77.00
37678;DHT22;23517;50.390;8.616;2022-09-09T04:07:26;14.60;76.90
37678;DHT22;23517;50.390;8.616;2022-09-09T04:09:54;14.60;76.50
37678;DHT22;23517;50.390;8.616;2022-09-09T04:12:21;14.70;75.90
37678;DHT22;23517;50.390;8.616;2022-09-09T04:14:48;14.80;75.70
37678;DHT22;23517;50.390;8.616;2022-09-09T04:17:16;14.80;75.40
37678;DHT22;23517;50.390;8.616;2022-09-09T04:19:43;14.90;75.20
37678;DHT22;23517;50.390;8.616;2022-09-09T04:22:10;15.00;74.50
37678;DHT22;23517;50.390;8.616;2022-09-09T04:24:37;15.10;73.90
37678;DHT22;23517;50.390;8.616;2022-09-09T04:27:03;15.20;73.30
37678;DHT22;23517;50.390;8.616;2022-09-09T04:29:30;15.20;72.90
37678;DHT22;23517;50.390;8.616;2022-09-09T04:31:57;15.20;72.70
37678;DHT22;23517;50.390;8.616;2022-09-09T04:34:23;15.20;72.70
37678;DHT22;23517;50.390;8.616;2022-09-09T04:36:50;15.30;72.70
37678;DHT22;23517;50.390;8.616;2022-09-09T04:39:18;15.30;72.30
37678;DHT22;23517;50.390;8.616;2022-09-09T04:41:46;15.30;72.00
37678;DHT22;23517;50.390;8.616;2022-09-09T04:44:13;15.30;72.10
37678;DHT22;23517;50.390;8.616;2022-09-09T04:46:40;15.30;71.80
37678;DHT22;23517;50.390;8.616;2022-09-09T04:49:07;15.40;71.50
37678;DHT22;23517;50.390;8.616;2022-09-09T04:51:40;15.40;71.40
37678;DHT22;23517;50.390;8.616;2022-09-09T04:54:07;15.40;70.90
37678;DHT22;23517;50.390;8.616;2022-09-09T04:56:33;15.40;70.70
37678;DHT22;23517;50.390;8.616;2022-09-09T04:59:00;15.50;70.60
37678;DHT22;23517;50.390;8.616;2022-09-09T05:01:29;15.50;71.00
37678;DHT22;23517;50.390;8.616;2022-09-09T05:03:55;15.50;70.80
37678;DHT22;23517;50.390;8.616;2022-09-09T05:06:23;15.50;70.70
37678;DHT22;23517;50.390;8.616;2022-09-09T05:08:52;15.50;70.40
37678;DHT22;23517;50.390;8.616;2022-09-09T05:11:30;15.60;69.70
37678;DHT22;23517;50.390;8.616;2022-09-09T05:13:59;15.60;69.00
37678;DHT22;23517;50.390;8.616;2022-09-09T05:16:26;15.70;68.50
37678;DHT22;23517;50.390;8.616;2022-09-09T05:19:02;15.70;69.30
37678;DHT22;23517;50.390;8.616;2022-09-09T05:21:30;15.80;68.30
37678;DHT22;23517;50.390;8.616;2022-09-09T05:24:01;15.80;68.40
37678;DHT22;23517;50.390;8.616;2022-09-09T05:26:30;15.80;68.30
37678;DHT22;23517;50.390;8.616;2022-09-09T05:28:59;15.70;68.10
37678;DHT22;23517;50.390;8.616;2022-09-09T05:31:30;15.80;67.70
37678;DHT22;23517;50.390;8.616;2022-09-09T05:34:07;15.80;67.90
37678;DHT22;23517;50.390;8.616;2022-09-09T05:36:37;15.80;67.60
37678;DHT22;23517;50.390;8.616;2022-09-09T05:39:14;15.80;67.20
37678;DHT22;23517;50.390;8.616;2022-09-09T05:41:41;15.80;67.30
37678;DHT22;23517;50.390;8.616;2022-09-09T05:44:07;15.90;66.40
37678;DHT22;23517;50.390;8.616;2022-09-09T05:46:34;15.90;66.60
37678;DHT22;23517;50.390;8.616;2022-09-09T05:49:02;15.90;66.50
37678;DHT22;23517;50.390;8.616;2022-09-09T05:51:29;15.90;66.60
37678;DHT22;23517;50.390;8.616;2022-09-09T05:53:59;16.00;66.30
37678;DHT22;23517;50.390;8.616;2022-09-09T05:56:29;16.00;66.20
37678;DHT22;23517;50.390;8.616;2022-09-09T05:58:56;16.00;66.10
37678;DHT22;23517;50.390;8.616;2022-09-09T06:01:25;16.00;65.90
37678;DHT22;23517;50.390;8.616;2022-09-09T06:03:56;16.10;65.80
37678;DHT22;23517;50.390;8.616;2022-09-09T06:06:26;16.10;65.60
37678;DHT22;23517;50.390;8.616;2022-09-09T06:08:55;16.10;65.50
37678;DHT22;23517;50.390;8.616;2022-09-09T06:11:29;16.20;65.40
37678;DHT22;23517;50.390;8.616;2022-09-09T06:14:00;16.30;64.90
37678;DHT22;23517;50.390;8.616;2022-09-09T06:16:28;16.40;64.10
37678;DHT22;23517;50.390;8.616;2022-09-09T06:18:57;16.50;63.90
37678;DHT22;23517;50.390;8.616;2022-09-09T06:21:27;16.60;63.60
37678;DHT22;23517;50.390;8.616;2022-09-09T06:23:54;16.60;63.50
37678;DHT22;23517;50.390;8.616;2022-09-09T06:26:31;16.70;62.80
37678;DHT22;23517;50.390;8.616;2022-09-09T06:29:00;16.80;62.20
37678;DHT22;23517;50.390;8.616;2022-09-09T06:31:31;16.90;61.90
37678;DHT22;23517;50.390;8.616;2022-09-09T06:34:01;17.00;61.40
37678;DHT22;23517;50.390;8.616;2022-09-09T06:36:30;17.20;60.40
37678;DHT22;23517;50.390;8.616;2022-09-09T06:38:59;17.50;59.50
37678;DHT22;23517;50.390;8.616;2022-09-09T06:41:28;18.10;59.00
37678;DHT22;23517;50.390;8.616;2022-09-09T06:43:56;18.70;54.90
37678;DHT22;23517;50.390;8.616;2022-09-09T06:46:25;19.20;51.70
37678;DHT22;23517;50.390;8.616;2022-09-09T06:48:55;19.30;51.00
37678;DHT22;23517;50.390;8.616;2022-09-09T06:51:31;19.20;50.90
37678;DHT22;23517;50.390;8.616;2022-09-09T06:54:01;18.70;53.00
37678;DHT22;23517;50.390;8.616;2022-09-09T06:56:40;18.60;53.20
37678;DHT22;23517;50.390;8.616;2022-09-09T06:59:09;18.50;53.80
37678;DHT22;23517;50.390;8.616;2022-09-09T07:01:38;18.40;54.50
37678;DHT22;23517;50.390;8.616;2022-09-09T07:04:09;18.40;54.70
37678;DHT22;23517;50.390;8.616;2022-09-09T07:06:39;18.60;53.40
37678;DHT22;23517;50.390;8.616;2022-09-09T07:09:11;18.80;53.40
37678;DHT22;23517;50.390;8.616;2022-09-09T07:11:46;19.00;52.70
37678;DHT22;23517;50.390;8.616;2022-09-09T07:14:20;19.20;51.70
37678;DHT22;23517;50.390;8.616;2022-09-09T07:16:57;19.40;51.80
37678;DHT22;23517;50.390;8.616;2022-09-09T07:19:25;19.60;50.50
37678;DHT22;23517;50.390;8.616;2022-09-09T07:21:52;19.60;49.80
37678;DHT22;23517;50.390;8.616;2022-09-09T07:24:18;19.50;49.80
37678;DHT22;23517;50.390;8.616;2022-09-09T07:26:45;19.40;50.90
37678;DHT22;23517;50.390;8.616;2022-09-09T07:29:12;19.10;51.30
37678;DHT22;23517;50.390;8.616;2022-09-09T07:31:46;19.10;51.60
37678;DHT22;23517;50.390;8.616;2022-09-09T07:34:13;19.40;50.90
37678;DHT22;23517;50.390;8.616;2022-09-09T07:36:40;19.30;51.10
37678;DHT22;23517;50.390;8.616;2022-09-09T07:39:13;19.40;50.80
37678;DHT22;23517;50.390;8.616;2022-09-09T07:41:42;19.40;50.30
37678;DHT22;23517;50.390;8.616;2022-09-09T07:44:13;19.40;50.30
37678;DHT22;23517;50.390;8.616;2022-09-09T07:46:41;19.60;49.40
37678;DHT22;23517;50.390;8.616;2022-09-09T07:49:09;19.40;49.20
37678;DHT22;23517;50.390;8.616;2022-09-09T07:51:45;19.10;50.10
37678;DHT22;23517;50.390;8.616;2022-09-09T07:54:15;18.90;51.60
37678;DHT22;23517;50.390;8.616;2022-09-09T07:56:46;18.90;52.60
37678;DHT22;23517;50.390;8.616;2022-09-09T07:59:13;19.00;51.50
37678;DHT22;23517;50.390;8.616;2022-09-09T08:01:44;19.00;50.90
37678;DHT22;23517;50.390;8.616;2022-09-09T08:04:16;19.10;50.50
37678;DHT22;23517;50.390;8.616;2022-09-09T08:06:46;19.20;49.50
37678;DHT22;23517;50.390;8.616;2022-09-09T08:09:19;19.40;48.90
37678;DHT22;23517;50.390;8.616;2022-09-09T08:11:47;19.60;48.20
37678;DHT22;23517;50.390;8.616;2022-09-09T08:14:14;20.40;46.70
37678;DHT22;23517;50.390;8.616;2022-09-09T08:16:46;21.40;42.40
37678;DHT22;23517;50.390;8.616;2022-09-09T08:19:13;22.20;39.20
37678;DHT22;23517;50.390;8.616;2022-09-09T08:21:44;22.80;36.90
37678;DHT22;23517;50.390;8.616;2022-09-09T08:24:12;23.20;35.60
37678;DHT22;23517;50.390;8.616;2022-09-09T08:26:46;23.30;34.10
37678;DHT22;23517;50.390;8.616;2022-09-09T08:29:18;23.00;35.40
37678;DHT22;23517;50.390;8.616;2022-09-09T08:31:46;22.60;37.10
37678;DHT22;23517;50.390;8.616;2022-09-09T08:34:18;23.80;33.40
37678;DHT22;23517;50.390;8.616;2022-09-09T08:36:48;23.70;32.60
37678;DHT22;23517;50.390;8.616;2022-09-09T08:39:18;23.80;31.40
37678;DHT22;23517;50.390;8.616;2022-09-09T08:44:52;24.10;31.20
37678;DHT22;23517;50.390;8.616;2022-09-09T08:47:53;24.10;30.50
37678;DHT22;23517;50.390;8.616;2022-09-09T08:50:34;23.90;31.20
37678;DHT22;23517;50.390;8.616;2022-09-09T08:53:14;23.60;32.90
37678;DHT22;23517;50.390;8.616;2022-09-09T09:09:23;22.90;34.20
37678;DHT22;23517;50.390;8.616;2022-09-09T09:12:02;23.60;32.60
37678;DHT22;23517;50.390;8.616;2022-09-09T09:14:39;25.50;28.50
37678;DHT22;23517;50.390;8.616;2022-09-09T09:17:13;27.50;24.10
37678;DHT22;23517;50.390;8.616;2022-09-09T09:22:31;29.70;19.70
37678;DHT22;23517;50.390;8.616;2022-09-09T09:27:57;28.10;22.00
37678;DHT22;23517;50.390;8.616;2022-09-09T09:30:40;24.30;28.60
37678;DHT22;23517;50.390;8.616;2022-09-09T09:33:26;22.60;33.30
37678;DHT22;23517;50.390;8.616;2022-09-09T09:36:02;21.50;36.30
37678;DHT22;23517;50.390;8.616;2022-09-09T09:38:29;21.00;38.50
37678;DHT22;23517;50.390;8.616;2022-09-09T09:41:16;20.70;39.90
37678;DHT22;23517;50.390;8.616;2022-09-09T09:43:53;20.30;42.00
37678;DHT22;23517;50.390;8.616;2022-09-09T09:46:23;20.20;42.50
37678;DHT22;23517;50.390;8.616;2022-09-09T09:48:59;20.30;42.60
37678;DHT22;23517;50.390;8.616;2022-09-09T09:51:29;20.70;41.30
37678;DHT22;23517;50.390;8.616;2022-09-09T09:54:22;20.70;41.70
37678;DHT22;23517;50.390;8.616;2022-09-09T09:56:55;20.90;40.90
37678;DHT22;23517;50.390;8.616;2022-09-09T09:59:33;21.00;41.30
37678;DHT22;23517;50.390;8.616;2022-09-09T10:02:26;21.00;40.70
37678;DHT22;23517;50.390;8.616;2022-09-09T10:05:04;20.70;41.40
37678;DHT22;23517;50.390;8.616;2022-09-09T10:07:40;20.60;42.00
37678;DHT22;23517;50.390;8.616;2022-09-09T10:10:15;20.70;41.90
37678;DHT22;23517;50.390;8.616;2022-09-09T10:13:11;20.80;41.50
37678;DHT22;23517;50.390;8.616;2022-09-09T10:21:40;21.10;36.60
37678;DHT22;23517;50.390;8.616;2022-09-09T10:24:27;21.10;34.60
37678;DHT22;23517;50.390;8.616;2022-09-09T10:27:03;21.20;34.10
37678;DHT22;23517;50.390;8.616;2022-09-09T10:35:10;21.50;31.80
37678;DHT22;23517;50.390;8.616;2022-09-09T10:38:12;21.40;31.00
37678;DHT22;23517;50.390;8.616;2022-09-09T10:46:34;21.60;29.30
37678;DHT22;23517;50.390;8.616;2022-09-09T10:49:16;21.80;29.40
37678;DHT22;23517;50.390;8.616;2022-09-09T10:52:18;22.10;28.60
37678;DHT22;23517;50.390;8.616;2022-09-09T10:54:56;22.00;28.90
37678;DHT22;23517;50.390;8.616;2022-09-09T10:57:46;22.10;29.40
37678;DHT22;23517;50.390;8.616;2022-09-09T11:00:38;22.10;29.20
37678;DHT22;23517;50.390;8.616;2022-09-09T11:03:21;22.10;28.80
37678;DHT22;23517;50.390;8.616;2022-09-09T11:08:42;22.30;28.00
37678;DHT22;23517;50.390;8.616;2022-09-09T11:11:36;22.30;28.70
37678;DHT22;23517;50.390;8.616;2022-09-09T11:14:14;22.40;27.60
37678;DHT22;23517;50.390;8.616;2022-09-09T11:17:03;22.40;28.20
37678;DHT22;23517;50.390;8.616;2022-09-09T11:19:37;22.20;27.80
37678;DHT22;23517;50.390;8.616;2022-09-09T11:25:08;22.20;27.30
37678;DHT22;23517;50.390;8.616;2022-09-09T11:31:08;21.90;28.30
37678;DHT22;23517;50.390;8.616;2022-09-09T11:39:51;21.70;28.40
37678;DHT22;23517;50.390;8.616;2022-09-09T11:42:24;21.90;28.70
37678;DHT22;23517;50.390;8.616;2022-09-09T11:44:51;21.90;28.80
37678;DHT22;23517;50.390;8.616;2022-09-09T11:47:30;21.80;28.80
37678;DHT22;23517;50.390;8.616;2022-09-09T11:50:36;21.90;29.30
37678;DHT22;23517;50.390;8.616;2022-09-09T11:53:18;22.20;28.10
37678;DHT22;23517;50.390;8.616;2022-09-09T11:55:47;22.10;27.20
37678;DHT22;23517;50.390;8.616;2022-09-09T11:58:17;22.10;26.90
37678;DHT22;23517;50.390;8.616;2022-09-09T12:00:48;22.10;27.10
37678;DHT22;23517;50.390;8.616;2022-09-09T12:06:28;21.80;27.30
37678;DHT22;23517;50.390;8.616;2022-09-09T12:11:52;21.40;28.60
37678;DHT22;23517;50.390;8.616;2022-09-09T12:17:31;21.50;28.00
37678;DHT22;23517;50.390;8.616;2022-09-09T12:20:35;21.50;28.00
37678;DHT22;23517;50.390;8.616;2022-09-09T12:23:34;21.50;27.80
37678;DHT22;23517;50.390;8.616;2022-09-09T12:26:27;21.60;27.90
37678;DHT22;23517;50.390;8.616;2022-09-09T12:29:24;21.50;27.50
37678;DHT22;23517;50.390;8.616;2022-09-09T12:34:39;21.60;27.30
37678;DHT22;23517;50.390;8.616;2022-09-09T12:37:21;21.50;27.60
37678;DHT22;23517;50.390;8.616;2022-09-09T12:40:04;21.60;27.90
37678;DHT22;23517;50.390;8.616;2022-09-09T12:42:47;21.70;28.50
37678;DHT22;23517;50.390;8.616;2022-09-09T12:45:24;21.90;27.50
37678;DHT22;23517;50.390;8.616;2022-09-09T12:48:08;22.10;27.00
37678;DHT22;23517;50.390;8.616;2022-09-09T12:50:44;22.10;27.20
37678;DHT22;23517;50.390;8.616;2022-09-09T12:53:36;21.90;27.00
37678;DHT22;23517;50.390;8.616;2022-09-09T12:56:06;21.60;27.60
37678;DHT22;23517;50.390;8.616;2022-09-09T12:58:36;21.70;28.30
37678;DHT22;23517;50.390;8.616;2022-09-09T13:01:05;21.70;28.40
37678;DHT22;23517;50.390;8.616;2022-09-09T13:03:33;21.80;28.30
37678;DHT22;23517;50.390;8.616;2022-09-09T13:06:17;22.10;28.10
37678;DHT22;23517;50.390;8.616;2022-09-09T13:08:51;22.20;27.80
37678;DHT22;23517;50.390;8.616;2022-09-09T13:11:33;22.20;28.10
37678;DHT22;23517;50.390;8.616;2022-09-09T13:14:06;22.30;28.00
37678;DHT22;23517;50.390;8.616;2022-09-09T13:16:35;22.30;28.60
37678;DHT22;23517;50.390;8.616;2022-09-09T13:19:13;22.40;28.20
37678;DHT22;23517;50.390;8.616;2022-09-09T13:21:42;22.40;27.80
37678;DHT22;23517;50.390;8.616;2022-09-09T13:24:31;22.30;27.20
37678;DHT22;23517;50.390;8.616;2022-09-09T13:27:03;22.10;25.70
37678;DHT22;23517;50.390;8.616;2022-09-09T13:29:52;22.10;26.10
37678;DHT22;23517;50.390;8.616;2022-09-09T13:32:24;22.00;27.90
37678;DHT22;23517;50.390;8.616;2022-09-09T13:34:58;22.00;27.30
37678;DHT22;23517;50.390;8.616;2022-09-09T13:37:33;22.00;27.60
37678;DHT22;23517;50.390;8.616;2022-09-09T13:40:04;22.10;27.50
37678;DHT22;23517;50.390;8.616;2022-09-09T13:42:37;22.00;28.10
37678;DHT22;23517;50.390;8.616;2022-09-09T13:45:06;21.90;28.40
37678;DHT22;23517;50.390;8.616;2022-09-09T13:47:46;21.90;28.80
37678;DHT22;23517;50.390;8.616;2022-09-09T13:50:24;21.80;28.80
37678;DHT22;23517;50.390;8.616;2022-09-09T13:52:56;21.90;29.00
37678;DHT22;23517;50.390;8.616;2022-09-09T13:55:28;22.00;29.00
37678;DHT22;23517;50.390;8.616;2022-09-09T13:58:00;22.20;28.90
37678;DHT22;23517;50.390;8.616;2022-09-09T14:00:33;22.10;29.30
37678;DHT22;23517;50.390;8.616;2022-09-09T14:03:00;22.10;29.20
37678;DHT22;23517;50.390;8.616;2022-09-09T14:05:32;22.10;29.70
37678;DHT22;23517;50.390;8.616;2022-09-09T14:08:00;21.90;29.30
37678;DHT22;23517;50.390;8.616;2022-09-09T14:10:27;21.70;29.40
37678;DHT22;23517;50.390;8.616;2022-09-09T14:12:54;21.50;29.50
37678;DHT22;23517;50.390;8.616;2022-09-09T14:15:20;21.30;29.90
37678;DHT22;23517;50.390;8.616;2022-09-09T14:17:48;21.30;30.10
37678;DHT22;23517;50.390;8.616;2022-09-09T14:20:15;21.40;30.80
37678;DHT22;23517;50.390;8.616;2022-09-09T14:22:43;21.40;30.00
37678;DHT22;23517;50.390;8.616;2022-09-09T14:25:10;21.30;29.20
37678;DHT22;23517;50.390;8.616;2022-09-09T14:27:39;21.10;29.80
37678;DHT22;23517;50.390;8.616;2022-09-09T14:30:07;20.90;30.40
37678;DHT22;23517;50.390;8.616;2022-09-09T14:32:34;20.80;31.10
37678;DHT22;23517;50.390;8.616;2022-09-09T14:35:01;20.70;31.80
37678;DHT22;23517;50.390;8.616;2022-09-09T14:37:28;20.50;32.30
37678;DHT22;23517;50.390;8.616;2022-09-09T14:39:57;20.50;32.70
37678;DHT22;23517;50.390;8.616;2022-09-09T14:42:24;20.50;32.90
37678;DHT22;23517;50.390;8.616;2022-09-09T14:44:53;20.50;33.30
37678;DHT22;23517;50.390;8.616;2022-09-09T14:47:19;20.60;32.70
37678;DHT22;23517;50.390;8.616;2022-09-09T14:49:46;20.60;32.70
37678;DHT22;23517;50.390;8.616;2022-09-09T14:52:15;20.60;32.30
37678;DHT22;23517;50.390;8.616;2022-09-09T14:54:43;20.70;32.70
37678;DHT22;23517;50.390;8.616;2022-09-09T14:57:09;20.70;32.50
37678;DHT22;23517;50.390;8.616;2022-09-09T14:59:36;20.80;32.20
37678;DHT22;23517;50.390;8.616;2022-09-09T15:02:03;20.70;32.80
37678;DHT22;23517;50.390;8.616;2022-09-09T15:04:31;20.70;33.20
37678;DHT22;23517;50.390;8.616;2022-09-09T15:06:57;20.60;33.50
37678;DHT22;23517;50.390;8.616;2022-09-09T15:09:25;20.50;35.20
37678;DHT22;23517;50.390;8.616;2022-09-09T15:11:51;20.40;37.90
37678;DHT22;23517;50.390;8.616;2022-09-09T15:14:18;20.30;38.80
37678;DHT22;23517;50.390;8.616;2022-09-09T15:16:50;20.30;38.40
37678;DHT22;23517;50.390;8.616;2022-09-09T15:19:17;20.30;38.90
37678;DHT22;23517;50.390;8.616;2022-09-09T15:21:44;20.50;37.70
37678;DHT22;23517;50.390;8.616;2022-09-09T15:24:10;20.60;37.00
37678;DHT22;23517;50.390;8.616;2022-09-09T15:26:37;20.70;36.00
37678;DHT22;23517;50.390;8.616;2022-09-09T15:29:07;20.80;35.80
37678;DHT22;23517;50.390;8.616;2022-09-09T15:31:35;20.80;35.90
37678;DHT22;23517;50.390;8.616;2022-09-09T15:34:04;21.10;34.80
37678;DHT22;23517;50.390;8.616;2022-09-09T15:36:42;21.10;34.10
37678;DHT22;23517;50.390;8.616;2022-09-09T15:39:12;21.10;34.50
37678;DHT22;23517;50.390;8.616;2022-09-09T15:41:43;20.90;34.40
37678;DHT22;23517;50.390;8.616;2022-09-09T15:44:11;20.70;35.20
37678;DHT22;23517;50.390;8.616;2022-09-09T15:46:43;20.50;35.70
37678;DHT22;23517;50.390;8.616;2022-09-09T15:49:17;20.30;35.80
37678;DHT22;23517;50.390;8.616;2022-09-09T15:51:47;20.20;36.30
37678;DHT22;23517;50.390;8.616;2022-09-09T15:54:22;20.00;36.70
37678;DHT22;23517;50.390;8.616;2022-09-09T15:56:52;19.90;37.20
37678;DHT22;23517;50.390;8.616;2022-09-09T15:59:24;19.70;38.00
37678;DHT22;23517;50.390;8.616;2022-09-09T16:01:52;19.60;38.90
37678;DHT22;23517;50.390;8.616;2022-09-09T16:04:19;19.40;39.80
37678;DHT22;23517;50.390;8.616;2022-09-09T16:06:56;19.30;40.50
37678;DHT22;23517;50.390;8.616;2022-09-09T16:09:26;19.20;41.10
37678;DHT22;23517;50.390;8.616;2022-09-09T16:11:56;19.10;41.70
37678;DHT22;23517;50.390;8.616;2022-09-09T16:14:25;19.10;41.90
37678;DHT22;23517;50.390;8.616;2022-09-09T16:16:52;19.00;42.70
37678;DHT22;23517;50.390;8.616;2022-09-09T16:19:19;18.90;43.20
37678;DHT22;23517;50.390;8.616;2022-09-09T16:21:48;18.80;44.00
37678;DHT22;23517;50.390;8.616;2022-09-09T16:24:18;18.70;44.50
37678;DHT22;23517;50.390;8.616;2022-09-09T16:26:51;18.60;45.00
37678;DHT22;23517;50.390;8.616;2022-09-09T16:29:19;18.60;45.30
37678;DHT22;23517;50.390;8.616;2022-09-09T16:31:49;18.60;45.60
37678;DHT22;23517;50.390;8.616;2022-09-09T16:34:17;18.60;45.70
37678;DHT22;23517;50.390;8.616;2022-09-09T16:36:46;18.60;45.90
37678;DHT22;23517;50.390;8.616;2022-09-09T16:39:16;18.60;46.30
37678;DHT22;23517;50.390;8.616;2022-09-09T16:41:44;18.60;46.30
37678;DHT22;23517;50.390;8.616;2022-09-09T16:44:13;18.70;47.80
37678;DHT22;23517;50.390;8.616;2022-09-09T16:46:42;18.60;48.70
37678;DHT22;23517;50.390;8.616;2022-09-09T16:49:14;18.60;48.60
37678;DHT22;23517;50.390;8.616;2022-09-09T16:51:44;18.60;50.00
37678;DHT22;23517;50.390;8.616;2022-09-09T16:54:16;18.60;50.80
37678;DHT22;23517;50.390;8.616;2022-09-09T16:56:46;18.50;51.90
37678;DHT22;23517;50.390;8.616;2022-09-09T16:59:18;18.40;52.50
37678;DHT22;23517;50.390;8.616;2022-09-09T17:01:48;18.30;53.20
37678;DHT22;23517;50.390;8.616;2022-09-09T17:04:18;18.30;55.60
37678;DHT22;23517;50.390;8.616;2022-09-09T17:06:52;18.20;56.60
37678;DHT22;23517;50.390;8.616;2022-09-09T17:09:24;18.10;57.70
37678;DHT22;23517;50.390;8.616;2022-09-09T17:11:54;18.10;57.80
37678;DHT22;23517;50.390;8.616;2022-09-09T17:14:22;18.00;58.00
37678;DHT22;23517;50.390;8.616;2022-09-09T17:16:49;18.10;58.50
37678;DHT22;23517;50.390;8.616;2022-09-09T17:19:16;18.10;59.10
37678;DHT22;23517;50.390;8.616;2022-09-09T17:21:43;18.10;59.10
37678;DHT22;23517;50.390;8.616;2022-09-09T17:24:29;18.10;59.10
37678;DHT22;23517;50.390;8.616;2022-09-09T17:26:57;18.00;59.20
37678;DHT22;23517;50.390;8.616;2022-09-09T17:29:25;18.00;59.40
37678;DHT22;23517;50.390;8.616;2022-09-09T17:31:52;18.00;61.20
37678;DHT22;23517;50.390;8.616;2022-09-09T17:34:19;17.90;60.90
37678;DHT22;23517;50.390;8.616;2022-09-09T17:36:46;17.90;60.20
37678;DHT22;23517;50.390;8.616;2022-09-09T17:39:13;17.90;59.60
37678;DHT22;23517;50.390;8.616;2022-09-09T17:41:40;17.90;58.70